createdAt,value
2023-04-23T00:02:03.343Z,51.41
2023-04-23T00:04:34.101Z,51.69
2023-04-23T00:07:02.706Z,51.73
2023-04-23T00:09:32.504Z,51.80
2023-04-23T00:12:01.041Z,52.21
2023-04-23T00:14:28.261Z,52.26
2023-04-23T00:16:55.204Z,52.43
2023-04-23T00:19:21.803Z,52.59
2023-04-23T00:21:48.488Z,53.19
2023-04-23T00:24:15.144Z,53.14
2023-04-23T00:26:44.725Z,52.50
2023-04-23T00:29:11.385Z,52.70
2023-04-23T00:31:38.124Z,52.92
2023-04-23T00:34:04.780Z,53.16
2023-04-23T00:36:31.447Z,53.49
2023-04-23T00:38:58.061Z,53.29
2023-04-23T00:41:25.898Z,52.74
2023-04-23T00:43:53.352Z,52.36
2023-04-23T00:46:20.367Z,52.17
2023-04-23T00:48:47.688Z,52.98
2023-04-23T00:51:16.585Z,53.23
2023-04-23T00:53:43.342Z,53.19
2023-04-23T00:56:10.638Z,53.19
2023-04-23T00:58:37.875Z,53.26
2023-04-23T01:01:04.971Z,53.51
2023-04-23T01:03:32.821Z,53.73
2023-04-23T01:06:00.010Z,54.34
2023-04-23T01:08:27.117Z,54.02
2023-04-23T01:10:54.708Z,53.78
2023-04-23T01:13:22.629Z,53.63
2023-04-23T01:15:49.722Z,53.94
2023-04-23T01:18:16.370Z,54.03
2023-04-23T01:20:43.827Z,54.11
2023-04-23T01:23:10.697Z,54.46
2023-04-23T01:25:37.784Z,53.92
2023-04-23T01:28:06.710Z,54.50
2023-04-23T01:30:33.893Z,54.70
2023-04-23T01:33:01.856Z,54.17
2023-04-23T01:35:29.982Z,54.25
2023-04-23T01:37:59.126Z,54.64
2023-04-23T01:40:25.841Z,54.28
2023-04-23T01:42:52.717Z,54.65
2023-04-23T01:45:19.812Z,54.92
2023-04-23T01:47:48.062Z,54.71
2023-04-23T01:50:15.423Z,54.86
2023-04-23T01:52:45.846Z,55.11
2023-04-23T01:55:12.556Z,55.54
2023-04-23T01:57:39.175Z,56.38
2023-04-23T02:00:09.270Z,55.50
2023-04-23T02:02:36.254Z,55.95
2023-04-23T02:05:04.831Z,56.27
2023-04-23T02:07:32.550Z,56.65
2023-04-23T02:09:59.415Z,56.92
2023-04-23T02:12:29.020Z,56.42
2023-04-23T02:14:55.713Z,56.69
2023-04-23T02:17:25.571Z,56.61
2023-04-23T02:19:52.443Z,56.94
2023-04-23T02:22:19.082Z,56.50
2023-04-23T02:24:47.313Z,56.69
2023-04-23T02:27:14.035Z,56.77
2023-04-23T02:29:41.302Z,56.83
2023-04-23T02:32:08.880Z,56.94
2023-04-23T02:34:38.944Z,56.09
2023-04-23T02:37:05.935Z,56.95
2023-04-23T02:39:34.802Z,57.57
2023-04-23T02:42:02.074Z,57.48
2023-04-23T02:44:28.731Z,57.62
2023-04-23T02:46:56.446Z,57.36
2023-04-23T02:49:23.118Z,57.97
2023-04-23T02:51:49.816Z,58.26
2023-04-23T02:54:17.092Z,58.48
2023-04-23T02:56:43.963Z,58.89
2023-04-23T02:59:10.902Z,58.77
2023-04-23T03:01:37.522Z,59.41
2023-04-23T03:04:04.722Z,59.52
2023-04-23T03:06:35.772Z,59.77
2023-04-23T03:09:03.053Z,59.42
2023-04-23T03:11:29.729Z,59.26
2023-04-23T03:13:56.401Z,58.71
2023-04-23T03:16:23.075Z,58.17
2023-04-23T03:18:50.023Z,58.71
2023-04-23T03:21:16.672Z,58.64
2023-04-23T03:23:43.403Z,58.74
2023-04-23T03:26:11.146Z,59.30
2023-04-23T03:28:37.713Z,58.81
2023-04-23T03:31:04.571Z,59.12
2023-04-23T03:33:31.298Z,59.66
2023-04-23T03:35:58.452Z,59.37
2023-04-23T03:38:25.120Z,59.72
2023-04-23T03:40:51.770Z,59.64
2023-04-23T03:43:18.510Z,59.49
2023-04-23T03:45:45.369Z,59.77
2023-04-23T03:48:11.970Z,60.00
2023-04-23T03:50:40.631Z,60.36
2023-04-23T03:53:08.263Z,60.47
2023-04-23T03:55:34.874Z,60.84
2023-04-23T03:58:03.171Z,61.14
2023-04-23T04:00:29.956Z,61.66
2023-04-23T04:02:56.761Z,61.79
2023-04-23T04:05:23.688Z,61.16
2023-04-23T04:07:50.366Z,61.62
2023-04-23T04:10:17.080Z,61.13
2023-04-23T04:12:45.645Z,60.56
2023-04-23T04:15:12.315Z,61.00
2023-04-23T04:17:38.998Z,61.46
2023-04-23T04:20:08.548Z,61.68
2023-04-23T04:22:35.235Z,61.56
2023-04-23T04:25:01.991Z,61.96
2023-04-23T04:27:28.628Z,61.66
2023-04-23T04:29:58.260Z,61.67
2023-04-23T04:32:27.160Z,61.80
2023-04-23T04:34:54.115Z,61.48
2023-04-23T04:37:23.698Z,61.40
2023-04-23T04:39:50.340Z,61.07
2023-04-23T04:42:17.051Z,61.33
2023-04-23T04:44:43.996Z,61.72
2023-04-23T04:47:10.849Z,61.38
2023-04-23T04:49:38.406Z,62.31
2023-04-23T04:52:05.162Z,61.80
2023-04-23T04:54:31.863Z,62.31
2023-04-23T04:56:58.643Z,62.15
2023-04-23T04:59:25.287Z,62.48
2023-04-23T05:01:51.960Z,62.81
2023-04-23T05:04:18.749Z,62.37
2023-04-23T05:06:48.069Z,62.34
2023-04-23T05:09:14.698Z,62.34
2023-04-23T05:11:41.560Z,62.03
2023-04-23T05:14:08.249Z,61.90
2023-04-23T05:16:35.037Z,62.05
2023-04-23T05:19:01.701Z,62.00
2023-04-23T05:21:28.497Z,61.84
2023-04-23T05:23:55.622Z,61.68
2023-04-23T05:26:22.335Z,60.92
2023-04-23T05:28:49.131Z,60.65
2023-04-23T05:31:15.935Z,60.40
2023-04-23T05:33:49.713Z,60.02
2023-04-23T05:36:17.838Z,59.28
2023-04-23T05:38:44.527Z,59.60
2023-04-23T05:41:11.511Z,60.84
2023-04-23T05:43:38.233Z,60.72
2023-04-23T05:46:07.453Z,61.42
2023-04-23T05:48:34.786Z,60.63
2023-04-23T05:51:04.252Z,60.93
2023-04-23T05:53:30.993Z,59.69
2023-04-23T05:55:57.970Z,59.17
2023-04-23T05:58:24.600Z,59.32
2023-04-23T06:00:53.067Z,57.95
2023-04-23T06:03:20.069Z,56.74
2023-04-23T06:05:47.073Z,55.81
2023-04-23T06:08:14.013Z,55.30
2023-04-23T06:10:40.788Z,54.10
2023-04-23T06:13:09.550Z,53.34
2023-04-23T06:15:36.152Z,52.78
2023-04-23T06:18:02.909Z,52.63
2023-04-23T06:20:30.178Z,53.13
2023-04-23T06:22:56.799Z,52.72
2023-04-23T06:25:23.466Z,52.15
2023-04-23T06:27:50.112Z,49.90
2023-04-23T06:30:16.754Z,47.80
2023-04-23T06:32:43.536Z,48.09
2023-04-23T06:35:10.303Z,46.93
2023-04-23T06:37:36.954Z,47.30
2023-04-23T06:40:03.909Z,46.55
2023-04-23T06:42:30.851Z,46.06
2023-04-23T06:44:59.376Z,45.62
2023-04-23T06:47:26.096Z,44.56
2023-04-23T06:49:52.749Z,44.36
2023-04-23T06:52:19.452Z,44.74
2023-04-23T06:54:46.365Z,42.76
2023-04-23T06:57:12.987Z,43.75
2023-04-23T06:59:39.673Z,43.36
2023-04-23T07:02:06.566Z,43.43
2023-04-23T07:04:33.523Z,43.68
2023-04-23T07:07:00.539Z,42.79
2023-04-23T07:09:28.578Z,42.34
2023-04-23T07:11:55.176Z,41.93
2023-04-23T07:14:21.849Z,41.43
2023-04-23T07:16:48.497Z,40.64
2023-04-23T07:19:15.218Z,40.53
2023-04-23T07:21:42.304Z,40.34
2023-04-23T07:24:09.006Z,39.10
2023-04-23T07:26:36.308Z,39.95
2023-04-23T07:29:04.858Z,39.07
2023-04-23T07:31:31.525Z,39.83
2023-04-23T07:33:58.198Z,39.72
2023-04-23T07:36:24.935Z,38.57
2023-04-23T07:38:51.570Z,38.48
2023-04-23T07:41:18.368Z,37.55
2023-04-23T07:43:47.995Z,37.79
2023-04-23T07:46:17.194Z,36.10
2023-04-23T07:48:46.504Z,37.46
2023-04-23T07:51:13.158Z,35.82
2023-04-23T07:53:39.917Z,35.46
2023-04-23T07:56:06.710Z,34.86
2023-04-23T07:58:33.506Z,33.43
2023-04-23T08:01:00.110Z,34.17
2023-04-23T08:03:29.064Z,34.71
2023-04-23T08:05:56.958Z,34.18
2023-04-23T08:08:23.549Z,32.30
2023-04-23T08:10:50.224Z,31.72
2023-04-23T08:13:16.924Z,32.97
2023-04-23T08:15:43.604Z,31.84
2023-04-23T08:18:10.336Z,31.58
2023-04-23T08:20:37.120Z,33.03
2023-04-23T08:23:04.786Z,32.90
2023-04-23T08:25:32.798Z,32.50
2023-04-23T08:27:59.601Z,31.94
2023-04-23T08:30:26.385Z,31.67
2023-04-23T08:32:54.005Z,31.20
2023-04-23T08:35:21.344Z,31.92
2023-04-23T08:40:14.919Z,32.45
2023-04-23T08:42:53.484Z,32.59
2023-04-23T08:45:22.218Z,32.22
2023-04-23T08:47:49.164Z,30.06
2023-04-23T08:50:20.518Z,29.36
2023-04-23T08:52:51.571Z,32.23
2023-04-23T08:55:18.974Z,32.76
2023-04-23T08:57:47.028Z,32.09
2023-04-23T09:00:15.827Z,32.77
2023-04-23T09:02:47.053Z,31.66
2023-04-23T09:05:14.530Z,32.60
2023-04-23T09:07:41.894Z,32.47
2023-04-23T09:10:11.728Z,31.81
2023-04-23T09:12:43.429Z,32.40
2023-04-23T09:15:11.083Z,32.24
2023-04-23T09:17:44.028Z,31.92
2023-04-23T09:20:11.960Z,31.02
2023-04-23T09:22:56.835Z,32.80
2023-04-23T09:25:24.511Z,32.61
2023-04-23T09:27:53.203Z,32.84
2023-04-23T09:30:20.263Z,30.36
2023-04-23T09:32:48.078Z,29.55
2023-04-23T09:35:17.082Z,31.00
2023-04-23T09:37:49.120Z,30.51
2023-04-23T09:40:21.051Z,30.54
2023-04-23T09:42:57.568Z,29.93
2023-04-23T09:45:25.910Z,28.12
2023-04-23T09:47:57.713Z,27.04
2023-04-23T09:50:36.974Z,27.45
2023-04-23T09:53:04.828Z,27.43
2023-04-23T09:55:40.854Z,27.73
2023-04-23T09:58:15.780Z,27.86
2023-04-23T10:00:45.785Z,26.59
2023-04-23T10:03:12.893Z,26.88
2023-04-23T10:08:14.074Z,27.80
2023-04-23T10:10:55.079Z,28.60
2023-04-23T10:13:28.268Z,28.34
2023-04-23T10:15:55.204Z,28.10
2023-04-23T10:18:24.210Z,26.78
2023-04-23T10:20:52.427Z,26.74
2023-04-23T10:23:23.691Z,27.57
2023-04-23T10:26:00.393Z,27.56
2023-04-23T10:28:33.143Z,27.60
2023-04-23T10:31:04.072Z,28.13
2023-04-23T10:33:39.780Z,27.46
2023-04-23T10:36:12.968Z,27.37
2023-04-23T10:38:54.872Z,27.09
2023-04-23T10:41:28.979Z,28.10
2023-04-23T10:43:55.772Z,27.56
2023-04-23T10:46:33.244Z,27.42
2023-04-23T10:49:16.412Z,27.57
2023-04-23T10:52:17.684Z,28.63
2023-04-23T10:54:34.718Z,28.03
2023-04-23T10:57:03.816Z,27.90
2023-04-23T10:59:32.219Z,28.01
2023-04-23T11:02:07.321Z,28.03
2023-04-23T11:04:35.837Z,28.05
2023-04-23T11:07:10.469Z,28.14
2023-04-23T11:09:53.732Z,27.86
2023-04-23T11:12:27.073Z,27.54
2023-04-23T11:14:55.266Z,28.40
2023-04-23T11:17:34.154Z,27.85
2023-04-23T11:20:14.183Z,28.38
2023-04-23T11:22:44.953Z,28.78
2023-04-23T11:25:19.273Z,28.76
2023-04-23T11:27:47.238Z,29.25
2023-04-23T11:30:25.589Z,28.58
2023-04-23T11:32:54.618Z,28.50
2023-04-23T11:35:24.714Z,28.32
2023-04-23T11:37:51.393Z,28.85
2023-04-23T11:40:19.845Z,29.58
2023-04-23T11:42:51.670Z,29.70
2023-04-23T11:45:23.260Z,30.67
2023-04-23T11:47:57.133Z,31.63
2023-04-23T11:50:25.286Z,30.41
2023-04-23T11:52:52.938Z,30.59
2023-04-23T11:55:20.779Z,30.62
2023-04-23T11:57:49.928Z,30.63
2023-04-23T12:00:19.559Z,30.80
2023-04-23T12:03:03.488Z,30.86
2023-04-23T12:05:33.688Z,31.36
2023-04-23T12:08:17.348Z,31.31
2023-04-23T12:10:48.151Z,31.77
2023-04-23T12:13:21.118Z,31.46
2023-04-23T12:15:52.683Z,31.10
2023-04-23T12:18:19.769Z,31.93
2023-04-23T12:20:46.625Z,31.41
2023-04-23T12:23:13.265Z,31.79
2023-04-23T12:25:41.022Z,32.22
2023-04-23T12:28:08.002Z,32.36
2023-04-23T12:30:43.404Z,32.14
2023-04-23T12:33:12.085Z,31.62
2023-04-23T12:35:42.521Z,31.85
2023-04-23T12:38:25.695Z,32.48
2023-04-23T12:40:57.137Z,32.03
2023-04-23T12:43:25.582Z,31.61
2023-04-23T12:45:55.887Z,32.04
2023-04-23T12:48:22.528Z,31.24
2023-04-23T12:50:49.348Z,31.94
2023-04-23T12:53:16.083Z,31.71
2023-04-23T12:55:44.421Z,31.96
2023-04-23T12:58:11.198Z,31.32
2023-04-23T13:00:37.831Z,31.39
2023-04-23T13:03:04.933Z,31.39
2023-04-23T13:05:31.511Z,31.59
2023-04-23T13:07:59.349Z,30.86
2023-04-23T13:10:26.115Z,30.42
2023-04-23T13:12:52.870Z,30.68
2023-04-23T13:15:20.288Z,30.25
2023-04-23T13:17:47.303Z,30.30
2023-04-23T13:20:13.990Z,30.99
2023-04-23T13:22:40.747Z,30.78
2023-04-23T13:25:07.587Z,30.15
2023-04-23T13:27:34.235Z,30.67
2023-04-23T13:30:01.523Z,30.39
2023-04-23T13:32:32.123Z,29.62
2023-04-23T13:35:01.887Z,29.01
2023-04-23T13:37:30.289Z,29.35
2023-04-23T13:39:57.095Z,29.51
2023-04-23T13:42:23.780Z,28.98
2023-04-23T13:44:50.742Z,29.08
2023-04-23T13:47:20.076Z,28.92
2023-04-23T13:49:48.043Z,29.04
2023-04-23T13:52:14.978Z,29.43
2023-04-23T13:54:42.310Z,29.93
2023-04-23T13:57:12.033Z,29.95
2023-04-23T13:59:38.674Z,29.49
2023-04-23T14:02:08.104Z,29.47
2023-04-23T14:04:34.756Z,29.04
2023-04-23T14:07:01.445Z,28.89
2023-04-23T14:09:29.974Z,29.36
2023-04-23T14:11:56.970Z,28.81
2023-04-23T14:14:23.619Z,28.87
2023-04-23T14:16:50.431Z,28.87
2023-04-23T14:19:17.177Z,28.89
2023-04-23T14:21:44.113Z,29.33
2023-04-23T14:24:27.630Z,29.88
2023-04-23T14:26:54.434Z,29.90
2023-04-23T14:29:32.832Z,29.26
2023-04-23T14:31:59.492Z,29.10
2023-04-23T14:34:26.154Z,28.99
2023-04-23T14:36:53.504Z,29.07
2023-04-23T14:39:22.688Z,29.82
2023-04-23T14:41:49.343Z,29.94
2023-04-23T14:44:15.940Z,29.70
2023-04-23T14:46:42.630Z,29.79
2023-04-23T14:49:09.215Z,29.87
2023-04-23T14:51:37.504Z,30.16
2023-04-23T14:54:05.048Z,29.69
2023-04-23T14:56:31.770Z,29.96
2023-04-23T14:58:58.398Z,30.52
2023-04-23T15:01:25.077Z,30.78
2023-04-23T15:03:53.567Z,30.82
2023-04-23T15:06:23.441Z,31.19
2023-04-23T15:08:50.114Z,29.97
2023-04-23T15:11:16.853Z,29.74
2023-04-23T15:14:03.893Z,29.89
2023-04-23T15:19:06.387Z,30.02
2023-04-23T15:21:33.400Z,30.14
2023-04-23T15:24:00.022Z,30.21
2023-04-23T15:26:26.542Z,30.03
2023-04-23T15:28:53.192Z,30.93
2023-04-23T15:31:19.818Z,30.56
2023-04-23T15:33:47.893Z,31.06
2023-04-23T15:36:14.584Z,30.91
2023-04-23T15:38:41.457Z,30.94
2023-04-23T15:41:11.390Z,30.58
2023-04-23T15:43:38.011Z,30.93
2023-04-23T15:46:04.706Z,30.66
2023-04-23T15:48:31.493Z,30.64
2023-04-23T15:50:58.370Z,31.06
2023-04-23T15:53:25.092Z,31.05
2023-04-23T15:55:55.029Z,30.86
2023-04-23T15:58:24.490Z,31.55
2023-04-23T16:00:51.161Z,31.12
2023-04-23T16:03:18.029Z,31.05
2023-04-23T16:05:48.165Z,31.83
2023-04-23T16:08:16.365Z,31.67
2023-04-23T16:10:43.170Z,31.43
2023-04-23T16:13:12.681Z,31.54
2023-04-23T16:15:39.299Z,31.52
2023-04-23T16:18:06.601Z,31.47
2023-04-23T16:20:33.508Z,31.25
2023-04-23T16:23:00.249Z,31.36
2023-04-23T16:25:27.019Z,31.37
2023-04-23T16:27:54.033Z,31.44
2023-04-23T16:30:21.262Z,31.48
2023-04-23T16:32:47.946Z,31.29
2023-04-23T16:35:14.626Z,31.42
2023-04-23T16:37:41.404Z,32.09
2023-04-23T16:40:09.164Z,31.79
2023-04-23T16:42:36.058Z,32.06
2023-04-23T16:45:03.083Z,31.95
2023-04-23T16:47:29.816Z,32.33
2023-04-23T16:49:56.633Z,32.14
2023-04-23T16:52:25.459Z,31.79
2023-04-23T16:54:52.041Z,31.75
2023-04-23T16:57:18.917Z,31.71
2023-04-23T16:59:45.687Z,31.89
2023-04-23T17:02:12.582Z,32.20
2023-04-23T17:04:39.742Z,32.25
2023-04-23T17:07:07.594Z,32.27
2023-04-23T17:09:34.935Z,32.53
2023-04-23T17:12:02.248Z,32.76
2023-04-23T17:14:31.129Z,32.55
2023-04-23T17:16:57.843Z,32.89
2023-04-23T17:19:24.524Z,32.99
2023-04-23T17:21:53.485Z,33.07
2023-04-23T17:24:22.413Z,33.08
2023-04-23T17:26:51.637Z,33.01
2023-04-23T17:29:18.317Z,33.14
2023-04-23T17:31:45.393Z,33.36
2023-04-23T17:34:12.222Z,33.65
2023-04-23T17:36:38.987Z,33.45
2023-04-23T17:39:05.816Z,33.54
2023-04-23T17:41:32.584Z,33.60
2023-04-23T17:43:59.268Z,33.63
2023-04-23T17:46:26.022Z,33.84
2023-04-23T17:48:52.762Z,33.75
2023-04-23T17:51:19.509Z,33.79
2023-04-23T17:53:50.604Z,34.13
2023-04-23T17:56:17.282Z,34.16
2023-04-23T17:58:44.027Z,34.25
2023-04-23T18:01:10.841Z,34.23
2023-04-23T18:03:38.368Z,34.63
2023-04-23T18:06:05.638Z,34.36
2023-04-23T18:08:32.350Z,34.31
2023-04-23T18:10:59.557Z,34.30
2023-04-23T18:13:26.470Z,34.50
2023-04-23T18:15:53.184Z,34.64
2023-04-23T18:18:21.725Z,34.54
2023-04-23T18:20:49.294Z,34.63
2023-04-23T18:23:16.138Z,34.46
2023-04-23T18:25:42.918Z,34.46
2023-04-23T18:28:09.775Z,34.30
2023-04-23T18:30:39.437Z,34.58
2023-04-23T18:33:15.333Z,34.84
2023-04-23T18:35:45.320Z,34.53
2023-04-23T18:38:25.753Z,34.42
2023-04-23T18:40:52.474Z,34.20
2023-04-23T18:43:19.157Z,34.29
2023-04-23T18:45:47.041Z,34.15
2023-04-23T18:48:35.462Z,33.96
2023-04-23T18:51:13.513Z,34.09
2023-04-23T18:53:40.307Z,33.79
2023-04-23T18:56:10.035Z,34.05
2023-04-23T18:58:36.835Z,34.09
2023-04-23T19:01:03.905Z,34.23
2023-04-23T19:03:31.350Z,33.92
2023-04-23T19:05:58.240Z,34.10
2023-04-23T19:08:30.727Z,33.75
2023-04-23T19:10:57.543Z,34.05
2023-04-23T19:13:24.484Z,33.83
2023-04-23T19:15:51.592Z,33.80
2023-04-23T19:18:18.843Z,34.00
2023-04-23T19:20:45.545Z,33.97
2023-04-23T19:23:12.223Z,33.96
2023-04-23T19:25:38.889Z,33.85
2023-04-23T19:28:05.528Z,33.80
2023-04-23T19:30:32.478Z,33.70
2023-04-23T19:32:59.345Z,33.83
2023-04-23T19:35:26.572Z,33.82
2023-04-23T19:37:53.304Z,33.85
2023-04-23T19:40:19.986Z,34.10
2023-04-23T19:42:46.661Z,34.00
2023-04-23T19:45:15.577Z,33.97
2023-04-23T19:47:42.412Z,33.96
2023-04-23T19:50:14.042Z,33.90
2023-04-23T19:52:41.441Z,33.69
2023-04-23T19:55:10.320Z,33.62
2023-04-23T19:57:37.303Z,33.70
2023-04-23T20:00:06.624Z,33.19
2023-04-23T20:02:35.136Z,33.50
2023-04-23T20:05:02.996Z,33.50
2023-04-23T20:07:29.717Z,33.17
2023-04-23T20:09:56.373Z,33.21
2023-04-23T20:12:24.690Z,32.98
2023-04-23T20:14:51.801Z,33.28
2023-04-23T20:17:20.208Z,33.17
2023-04-23T20:19:46.884Z,33.21
2023-04-23T20:22:13.619Z,33.21
2023-04-23T20:24:42.767Z,33.24
2023-04-23T20:27:09.396Z,33.25
2023-04-23T20:29:36.087Z,33.15
2023-04-23T20:32:02.760Z,33.39
2023-04-23T20:34:29.581Z,33.34
2023-04-23T20:36:58.914Z,33.04
2023-04-23T20:39:25.661Z,33.06
2023-04-23T20:41:52.629Z,33.18
2023-04-23T20:44:22.699Z,33.04
2023-04-23T20:46:53.002Z,33.17
2023-04-23T20:49:20.075Z,33.39
2023-04-23T20:51:46.863Z,33.26
2023-04-23T20:54:13.546Z,33.02
2023-04-23T20:56:40.331Z,33.18
2023-04-23T20:59:07.040Z,32.99
2023-04-23T21:01:33.874Z,33.03
2023-04-23T21:04:05.977Z,33.14
2023-04-23T21:06:33.521Z,33.17
2023-04-23T21:09:00.191Z,32.94
2023-04-23T21:11:27.901Z,33.07
2023-04-23T21:14:00.228Z,32.90
2023-04-23T21:16:27.593Z,33.06
2023-04-23T21:18:54.250Z,33.21
2023-04-23T21:21:27.076Z,32.90
2023-04-23T21:23:53.740Z,32.87
2023-04-23T21:26:21.113Z,32.62
2023-04-23T21:28:47.781Z,33.03
2023-04-23T21:31:29.756Z,32.75
2023-04-23T21:33:56.941Z,32.81
2023-04-23T21:36:23.745Z,32.64
2023-04-23T21:38:50.557Z,32.38
2023-04-23T21:41:17.667Z,32.56
2023-04-23T21:43:44.418Z,32.69
2023-04-23T21:46:11.143Z,33.11
2023-04-23T21:48:37.875Z,32.61
2023-04-23T21:51:05.160Z,32.67
2023-04-23T21:53:31.754Z,32.80
2023-04-23T21:56:00.828Z,32.65
2023-04-23T21:58:28.039Z,32.89
2023-04-23T22:00:55.357Z,32.71
2023-04-23T22:03:30.863Z,32.63
2023-04-23T22:06:05.213Z,32.88
2023-04-23T22:08:33.079Z,32.68
2023-04-23T22:10:59.955Z,32.88
2023-04-23T22:13:26.846Z,33.06
2023-04-23T22:15:53.595Z,32.75
2023-04-23T22:18:20.665Z,32.65
2023-04-23T22:20:49.572Z,32.68
2023-04-23T22:23:16.434Z,32.66
2023-04-23T22:25:43.159Z,32.72
2023-04-23T22:28:09.783Z,32.62
2023-04-23T22:30:36.738Z,32.84
2023-04-23T22:33:04.179Z,32.57
2023-04-23T22:35:31.880Z,32.61
2023-04-23T22:37:58.707Z,32.49
2023-04-23T22:40:25.356Z,32.50
2023-04-23T22:42:52.019Z,32.36
2023-04-23T22:45:18.809Z,32.70
2023-04-23T22:47:45.516Z,32.58
2023-04-23T22:50:12.358Z,32.53
2023-04-23T22:52:39.053Z,32.64
2023-04-23T22:55:06.260Z,32.72
2023-04-23T22:57:33.017Z,32.47
2023-04-23T23:00:00.731Z,32.86
2023-04-23T23:02:27.485Z,33.23
2023-04-23T23:04:54.786Z,32.96
2023-04-23T23:07:21.711Z,33.14
2023-04-23T23:09:48.360Z,33.05
2023-04-23T23:12:15.043Z,32.97
2023-04-23T23:14:41.783Z,33.10
2023-04-23T23:17:08.459Z,32.72
2023-04-23T23:19:35.102Z,32.95
2023-04-23T23:22:01.851Z,32.81
2023-04-23T23:24:28.418Z,32.77
2023-04-23T23:26:55.050Z,32.96
2023-04-23T23:29:21.692Z,32.75
2023-04-23T23:31:48.506Z,32.77
2023-04-23T23:34:15.376Z,32.99
2023-04-23T23:36:42.096Z,32.88
2023-04-23T23:39:08.801Z,33.09
2023-04-23T23:41:35.356Z,33.30
2023-04-23T23:44:04.226Z,33.25
2023-04-23T23:46:30.888Z,33.43
2023-04-23T23:48:57.526Z,33.24
2023-04-23T23:51:24.236Z,33.55
2023-04-23T23:53:50.903Z,33.10
2023-04-23T23:56:17.639Z,33.45
2023-04-23T23:58:44.314Z,33.16
